Flight Track Log - Related Links

Times and Time Zones

All times are in EDT time to prevent confusion due to time zone crossing. See the OPT429 flight status page for this flight to view local times or setup timezone preferences in your user account.

Time Position Orientation Groundspeed Altitude Reporting Facility
EDT Latitude Longitude Course Direction KTS MPH feet Rate Location/Type
Fri 09:40:41 AM 43.3194 -73.6058 291° West 158 182 1,800  Level Boston Center
Fri 09:41:48 AM 43.2700 -73.6186 191° South 190 219 3,300 2,146 Climbing Boston Center
Fri 09:42:58 AM 43.2842 -73.7106 282° West 213 245 6,700 3,023 Climbing Boston Center
Fri 09:44:01 AM 43.3097 -73.8022 291° West 249 287 10,000 2,613 Climbing Boston Center
Fri 09:45:02 AM 43.3178 -73.9183 275° West 292 336 12,100 2,975 Climbing Boston Center
Fri 09:46:00 AM 43.5159 -74.3473 291° West  Level FlightAware Approximate
Fri 09:46:02 AM 43.3172 -74.0253 270° West 284 327 16,000  Level Boston Center
Fri 09:47:04 AM 43.3181 -74.1281 271° West 274 315 19,000 2,688 Climbing Boston Center
Fri 09:48:07 AM 43.3186 -74.2303 270° West 280 322 21,600 2,516 Climbing Boston Center
Fri 09:49:08 AM 43.3167 -74.3439 269° West 295 339 24,200 2,419 Climbing Boston Center
Fri 09:50:11 AM 43.3136 -74.4686 268° West 318 366 26,600 2,634 Climbing Boston Center
Fri 09:51:11 AM 43.3100 -74.6189 268° West 330 380 29,600 2,459 Climbing Boston Center
Fri 09:52:13 AM 43.3067 -74.7469 268° West 333 383 31,600 1,920 Climbing Boston Center
Fri 09:53:16 AM 43.3353 -74.8669 288° West 335 386 33,600 1,805 Climbing Boston Center
Fri 09:54:16 AM 43.3811 -74.9739 301° West 335 386 35,300 1,339 Climbing Boston Center
Fri 09:55:17 AM 43.4292 -75.0850 301° West 336 387 36,300 960 Climbing Boston Center
Fri 09:56:21 AM 43.4828 -75.2108 300° West 346 398 37,300 816 Climbing Boston Center
Fri 09:57:22 AM 43.5336 -75.3306 300° West 361 415 38,000 744 Climbing Boston Center
Fri 09:58:22 AM 43.5864 -75.4528 301° West 369 425 38,800 871 Climbing Boston Center
Fri 09:59:26 AM 43.6386 -75.5769 300° West 371 427 39,800 1,008 Climbing Boston Center
Fri 10:00:27 AM 43.7000 -75.7222 300° West 370 426 40,900 992 Climbing Boston Center
Fri 10:01:27 AM 43.7486 -75.8394 300° West 359 413 41,800 823 Climbing Boston Center
Fri 10:02:31 AM 43.7969 -75.9542 300° West 350 403 42,600 532 Climbing Boston Center
Fri 10:03:31 AM 43.8442 -76.0675 300° West 344 396 42,900 194 Climbing Boston Center
Fri 10:04:35 AM 43.8936 -76.1864 300° West 349 402 43,000 48 Climbing Boston Center
Fri 10:05:36 AM 43.9433 -76.3069 300° West 360 414 43,000  Level Boston Center
Fri 10:06:37 AM 43.9936 -76.4294 300° West 365 420 43,000  Level Boston Center
Fri 10:07:38 AM 44.0294 -76.5933 287° West 374 430 43,000  Level Boston Center
Fri 10:08:39 AM 44.0333 -76.7167 273° West 380 437 43,000  Level Toronto Center
Fri 10:09:39 AM 44.0500 -76.8667 279° West 370 426 43,000  Level Toronto Center
Fri 10:10:39 AM 44.0500 -77.0167 270° West 380 437 43,000  Level Toronto Center
Fri 10:13:39 AM 44.1000 -77.4500 282° West 370 426 43,000  Level Toronto Center
Fri 10:14:39 AM 44.1167 -77.5833 280° West 370 426 43,000  Level Toronto Center
Fri 10:15:39 AM 44.1167 -77.7333 270° West 370 426 43,000  Level Toronto Center
Fri 10:16:39 AM 44.1333 -77.8667 280° West 370 426 43,000  Level Toronto Center
Fri 10:17:39 AM 44.1333 -78.0000 270° West 380 437 43,000  Level Toronto Center
Fri 10:18:40 AM 44.1500 -78.1667 278° West 370 426 43,000  Level Toronto Center
Fri 10:19:39 AM 44.1500 -78.3000 270° West 380 437 43,000  Level Toronto Center
Fri 10:20:39 AM 44.1667 -78.4500 279° West 380 437 43,000  Level Toronto Center
Fri 10:21:39 AM 44.2000 -78.5833 289° West 370 426 43,000  Level Toronto Center
Fri 10:22:39 AM 44.2000 -78.7500 270° West 370 426 43,000  Level Toronto Center
Fri 10:23:39 AM 44.2167 -78.8833 280° West 370 426 43,000  Level Toronto Center
Fri 10:24:39 AM 44.2167 -79.0333 270° West 380 437 43,000  Level Toronto Center
Fri 10:25:39 AM 44.2333 -79.1667 280° West 380 437 43,000  Level Toronto Center
Fri 10:26:39 AM 44.2333 -79.3000 270° West 380 437 43,000  Level Toronto Center
Fri 10:27:39 AM 44.2500 -79.4667 278° West 380 437 43,000  Level Toronto Center
Fri 10:28:39 AM 44.2667 -79.6167 279° West 380 437 43,000  Level Toronto Center
Fri 10:29:39 AM 44.2667 -79.7500 270° West 370 426 43,000  Level Toronto Center
Fri 10:30:39 AM 44.2833 -79.8833 280° West 370 426 43,000  Level Toronto Center
Fri 10:31:39 AM 44.2833 -80.0333 270° West 360 414 43,000  Level Toronto Center
Fri 10:32:39 AM 44.3000 -80.1667 280° West 360 414 43,000  Level Toronto Center
Fri 10:33:39 AM 44.3000 -80.3000 270° West 360 414 43,000  Level Toronto Center
Fri 10:34:39 AM 44.3167 -80.4500 279° West 360 414 43,000  Level Toronto Center
Fri 10:35:39 AM 44.3333 -80.6167 278° West 360 414 43,000  Level Toronto Center
Fri 10:36:39 AM 44.3500 -80.7333 281° West 360 414 43,000  Level Toronto Center
Fri 10:37:39 AM 44.3667 -80.8500 281° West 350 403 43,000  Level Toronto Center
Fri 10:38:39 AM 44.3833 -80.9833 280° West 350 403 43,000  Level Toronto Center
Fri 10:39:39 AM 44.4167 -81.1333 287° West 350 403 43,000  Level Toronto Center
Fri 10:40:39 AM 44.4333 -81.2667 280° West 350 403 43,000  Level Toronto Center
Fri 10:41:39 AM 44.4667 -81.3833 292° West 360 414 43,000  Level Toronto Center
Fri 10:42:39 AM 44.5000 -81.5333 287° West 360 414 43,000  Level Toronto Center
Fri 10:43:39 AM 44.5167 -81.6667 280° West 360 414 43,000  Level Toronto Center
Fri 10:44:39 AM 44.5500 -81.8167 287° West 360 414 43,000  Level Toronto Center
Fri 10:45:39 AM 44.5667 -81.9333 281° West 360 414 43,000  Level Toronto Center
Fri 10:46:39 AM 44.5833 -82.0667 280° West 360 414 43,000  Level Toronto Center
Fri 10:47:39 AM 44.6000 -82.2167 279° West 350 403 43,000  Level Toronto Center
Fri 10:48:39 AM 44.6333 -82.3333 292° West 360 414 43,000  Level Toronto Center
Fri 10:49:39 AM 44.6667 -82.4667 289° West 360 414 43,000  Level Toronto Center
Fri 10:50:39 AM 44.6833 -82.6167 279° West 360 414 43,000  Level Toronto Center
Fri 10:51:29 AM 44.7094 -82.7183 290° West 357 411 43,000  Level Minneapolis Center
Fri 10:52:31 AM 44.7322 -82.8544 283° West 357 411 43,000  Level Minneapolis Center
Fri 10:53:33 AM 44.7556 -82.9892 284° West 357 411 43,000  Level Minneapolis Center
Fri 10:54:39 AM 44.7833 -83.1500 284° West 350 403 43,000  Level Toronto Center
Fri 10:55:39 AM 44.7833 -83.3000 270° West 360 414 43,000  Level Toronto Center
Fri 10:56:39 AM 44.8256 -83.4247 296° West 358 412 43,000  Level Minneapolis Center
Fri 10:57:41 AM 44.8475 -83.5606 283° West 358 412 43,000  Level Minneapolis Center
Fri 10:58:43 AM 44.8697 -83.6961 283° West 358 412 43,000  Level Minneapolis Center
Fri 10:59:45 AM 44.8958 -83.8589 283° West 357 411 43,000  Level Minneapolis Center
Fri 11:00:47 AM 44.9164 -83.9942 282° West 357 411 43,000  Level Minneapolis Center
Fri 11:01:49 AM 44.9378 -84.1308 283° West 357 411 43,000  Level Minneapolis Center
Fri 11:02:52 AM 44.9594 -84.2664 283° West 357 411 43,000  Level Minneapolis Center
Fri 11:03:54 AM 44.9797 -84.4036 282° West 357 411 43,000  Level Minneapolis Center
Fri 11:04:56 AM 45.0014 -84.5428 282° West 358 412 43,000  Level Minneapolis Center
Fri 11:05:58 AM 45.0256 -84.7086 282° West 360 414 43,000  Level Minneapolis Center
Fri 11:07:00 AM 45.0467 -84.8453 282° West 360 414 43,000  Level Minneapolis Center
Fri 11:08:02 AM 45.0672 -84.9847 282° West 360 414 43,000  Level Minneapolis Center
Fri 11:09:04 AM 45.0869 -85.1236 281° West 361 415 43,000  Level Minneapolis Center
Fri 11:10:07 AM 45.1081 -85.2622 282° West 361 415 43,000  Level Minneapolis Center
Fri 11:11:09 AM 45.1319 -85.4297 281° West 362 417 43,000  Level Minneapolis Center
Fri 11:12:11 AM 45.1511 -85.5683 281° West 363 418 43,000  Level Minneapolis Center
Fri 11:13:13 AM 45.1711 -85.7072 282° West 362 417 43,000  Level Minneapolis Center
Fri 11:14:15 AM 45.1903 -85.8464 281° West 363 418 43,000  Level Minneapolis Center
Fri 11:15:17 AM 45.2094 -85.9847 281° West 363 418 43,000  Level Minneapolis Center
Fri 11:16:19 AM 45.2322 -86.1508 281° West 363 418 43,000  Level Minneapolis Center
Fri 11:17:21 AM 45.2503 -86.2889 281° West 361 415 43,000 -48 Level Minneapolis Center
Fri 11:18:23 AM 45.2689 -86.4264 281° West 361 415 42,900  Descending Minneapolis Center
Fri 11:19:25 AM 45.2869 -86.5639 281° West 360 414 43,000 48 Climbing Minneapolis Center
Fri 11:20:28 AM 45.3056 -86.7025 281° West 360 414 43,000  Level Minneapolis Center
Fri 11:21:30 AM 45.3258 -86.8669 280° West 356 410 43,000 -387 Level Minneapolis Center
Fri 11:22:32 AM 45.3444 -87.0067 281° West 357 411 42,200 -1,161 Descending Minneapolis Center
Fri 11:23:34 AM 45.3611 -87.1453 280° West 358 412 40,600 -1,790 Descending Minneapolis Center
Fri 11:24:36 AM 45.3778 -87.2736 281° West 334 384 38,500 -2,129 Descending Minneapolis Center
Fri 11:25:38 AM 45.3922 -87.3892 280° West 301 346 36,200 -2,274 Descending Minneapolis Center
Fri 11:26:40 AM 45.4064 -87.5031 280° West 294 338 33,800 -2,613 Descending Minneapolis Center
Fri 11:27:42 AM 45.4236 -87.6453 280° West 301 346 30,800 -2,661 Descending Minneapolis Center
Fri 11:28:44 AM 45.4381 -87.7672 280° West 310 357 28,300 -2,400 Descending Minneapolis Center
Fri 11:29:47 AM 45.4539 -87.8936 280° West 323 372 25,800 -2,400 Descending Minneapolis Center
Fri 11:30:49 AM 45.4692 -88.0208 280° West 324 373 23,300 -2,419 Descending Minneapolis Center
Fri 11:31:51 AM 45.4847 -88.1478 280° West 324 373 20,800 -2,613 Descending Minneapolis Center
Fri 11:32:53 AM 45.5017 -88.2961 279° West 323 372 17,900 -2,565 Descending Minneapolis Center
Fri 11:33:55 AM 45.5150 -88.4172 279° West 314 361 15,500 -2,081 Descending Minneapolis Center
Fri 11:34:57 AM 45.5286 -88.5306 280° West 298 343 13,600 -1,887 Descending Minneapolis Center
Fri 11:35:59 AM 45.5411 -88.6486 279° West 298 343 11,600 -2,081 Descending Minneapolis Center
Fri 11:37:01 AM 45.5539 -88.7586 279° West 285 328 9,300 -2,238 Descending Minneapolis Center
Fri 11:38:05 AM 45.5653 -88.8639 279° West 273 314 6,900 -2,048 Descending Minneapolis Center
Fri 11:39:07 AM 45.5775 -88.9806 279° West 257 296 5,000 -968 Descending Minneapolis Center
Fri 11:40:09 AM 45.5869 -89.0614 280° West 233 268 4,900 -242 Descending Minneapolis Center
Fri 11:41:11 AM 45.5953 -89.1381 279° West 212 244 4,500 -581 Descending Minneapolis Center
Fri 11:42:13 AM 45.6081 -89.2153 283° West 204 235 3,700 -726 Descending Minneapolis Center
Fri 11:43:15 AM 45.6281 -89.2883 291° West 203 234 3,000 -532 Descending Minneapolis Center
Fri 11:44:17 AM 45.6328 -89.3514 276° West 174 200 2,600 -384 Descending Minneapolis Center
Fri 11:45:20 AM 45.6311 -89.4131 268° West 144 166 2,200 -381 Descending Minneapolis Center

Login

Don't have an account? Register now (free) for customized features, flight alerts, and more!